Time;durP1;ratioP1;P1;durP2;ratioP2;P2;SDS_P1;SDS_P2;PMS_P1;PMS_P2;Temp;Humidity;BMP_temperature;BMP_pressure;BME280_temperature;BME280_humidity;BME280_pressure;Samples;Min_cycle;Max_cycle;Signal;HPM_P1;HPM_P2
2021/07/05 00:00:32;;;;;;;0.10;0.10;;;;;;;21.36;51.72;98326.84;5088126;28;20055;-78
2021/07/05 00:02:57;;;;;;;0.00;0.00;;;;;;;21.32;51.84;98325.22;5071919;28;20419;-76
2021/07/05 00:05:23;;;;;;;0.10;0.10;;;;;;;21.26;51.65;98322.81;5087094;28;20036;-76
2021/07/05 00:07:48;;;;;;;0.10;0.10;;;;;;;21.29;51.56;98329.44;5076884;28;20032;-77
2021/07/05 00:10:22;;;;;;;0.10;0.10;;;;;;;21.26;51.36;98320.09;5061095;28;20422;-77
2021/07/05 00:12:48;;;;;;;0.10;0.10;;;;;;;21.23;51.64;98318.09;5072964;28;20077;-79
2021/07/05 00:15:19;;;;;;;0.10;0.10;;;;;;;21.21;51.45;98317.66;5091854;28;20032;-81
2021/07/05 00:17:46;;;;;;;0.10;0.10;;;;;;;21.19;51.56;98309.09;5086267;28;20031;-74
2021/07/05 00:20:12;;;;;;;0.13;0.13;;;;;;;21.15;51.02;98312.91;5091248;28;20439;-76
2021/07/05 00:22:37;;;;;;;0.10;0.10;;;;;;;21.12;50.84;98314.44;5082997;28;20020;-76
2021/07/05 00:25:04;;;;;;;0.10;0.10;;;;;;;21.11;50.87;98310.91;5084546;28;20465;-76
2021/07/05 00:27:30;;;;;;;0.05;0.05;;;;;;;21.08;50.62;98316.28;5088102;28;20028;-77
2021/07/05 00:29:55;;;;;;;0.10;0.10;;;;;;;21.07;50.93;98322.91;5083002;28;20472;-75
2021/07/05 00:32:21;;;;;;;0.10;0.10;;;;;;;21.03;50.92;98319.31;5085383;28;20105;-76
2021/07/05 00:34:47;;;;;;;0.10;0.10;;;;;;;21.01;50.98;98316.97;5059587;28;20588;-76
2021/07/05 00:37:12;;;;;;;0.10;0.10;;;;;;;21.01;51.22;98314.25;5083590;28;20050;-75
2021/07/05 00:39:38;;;;;;;0.10;0.10;;;;;;;21.03;51.54;98314.69;5088359;28;20027;-74
2021/07/05 00:42:03;;;;;;;0.03;0.03;;;;;;;21.01;51.65;98311.53;5083242;28;20028;-75
2021/07/05 00:44:29;;;;;;;0.10;0.10;;;;;;;21.01;51.88;98313.47;5086898;28;20080;-76
2021/07/05 00:46:54;;;;;;;0.10;0.10;;;;;;;20.98;51.86;98316.91;5079371;28;20033;-76
2021/07/05 00:49:20;;;;;;;0.10;0.10;;;;;;;21.00;51.41;98326.25;5081373;28;20075;-76
2021/07/05 00:51:45;;;;;;;0.10;0.10;;;;;;;20.99;51.33;98319.25;5078023;28;20408;-76
2021/07/05 00:54:11;;;;;;;0.10;0.10;;;;;;;20.96;51.45;98317.28;5076259;28;20051;-76
2021/07/05 00:56:37;;;;;;;0.20;0.20;;;;;;;20.89;51.35;98320.66;5078385;28;20032;-76
2021/07/05 00:59:04;;;;;;;0.10;0.10;;;;;;;20.85;51.70;98325.25;5076398;28;20103;-76
2021/07/05 01:01:29;;;;;;;0.00;0.00;;;;;;;20.82;52.01;98319.75;5081714;28;20032;-76
2021/07/05 01:03:55;;;;;;;0.10;0.10;;;;;;;20.79;51.84;98318.53;5073139;28;20283;-76
2021/07/05 01:06:20;;;;;;;0.00;0.00;;;;;;;20.76;52.18;98320.06;5080969;28;20032;-75
2021/07/05 01:08:46;;;;;;;0.10;0.10;;;;;;;20.73;52.19;98318.06;5075665;28;20025;-75
2021/07/05 01:11:11;;;;;;;0.10;0.10;;;;;;;20.68;52.34;98315.63;5067436;28;20548;-75
2021/07/05 01:13:37;;;;;;;0.00;0.00;;;;;;;20.64;52.36;98318.25;5090369;28;20471;-75
2021/07/05 01:16:02;;;;;;;0.10;0.10;;;;;;;20.63;52.62;98319.41;5078268;28;20051;-76
2021/07/05 01:18:28;;;;;;;0.10;0.10;;;;;;;20.59;52.39;98315.84;5082923;28;20037;-75
2021/07/05 01:21:00;;;;;;;0.10;0.10;;;;;;;20.55;52.55;98317.69;5091056;28;20050;-76
2021/07/05 01:23:26;;;;;;;0.10;0.10;;;;;;;20.51;52.62;98325.00;5090598;28;20024;-76
2021/07/05 01:25:52;;;;;;;0.10;0.10;;;;;;;20.49;53.01;98316.44;5090581;28;20047;-76
2021/07/05 01:28:17;;;;;;;0.10;0.10;;;;;;;20.44;53.27;98320.22;5090890;28;20024;-76
2021/07/05 01:30:43;;;;;;;0.10;0.10;;;;;;;20.44;53.31;98322.94;5091081;28;20024;-76
2021/07/05 01:33:10;;;;;;;0.10;0.10;;;;;;;20.44;53.59;98322.16;5090625;28;20052;-77
2021/07/05 01:35:35;;;;;;;0.10;0.10;;;;;;;20.42;53.52;98319.81;5090874;28;20031;-76
2021/07/05 01:38:02;;;;;;;0.10;0.10;;;;;;;20.44;53.82;98319.44;5082842;28;20035;-76
2021/07/05 01:40:28;;;;;;;0.10;0.10;;;;;;;20.41;53.48;98318.25;5077960;28;20078;-77
2021/07/05 01:42:57;;;;;;;0.10;0.10;;;;;;;20.41;53.85;98320.97;5092828;28;20024;-76
2021/07/05 01:45:29;;;;;;;0.10;0.10;;;;;;;20.44;53.54;98319.44;5074779;28;20060;-75
2021/07/05 01:47:54;;;;;;;0.10;0.10;;;;;;;20.40;53.68;98326.75;5074773;28;20491;-75
2021/07/05 01:50:21;;;;;;;0.10;0.10;;;;;;;20.37;53.64;98325.50;5070386;28;20116;-74
2021/07/05 01:52:48;;;;;;;0.10;0.10;;;;;;;20.30;53.08;98325.41;5074725;28;20093;-76
2021/07/05 01:55:14;;;;;;;0.43;0.43;;;;;;;20.26;53.52;98324.53;5088344;28;20043;-76
2021/07/05 01:57:39;;;;;;;0.10;0.10;;;;;;;20.22;53.53;98323.69;5093804;28;20169;-76
2021/07/05 02:00:14;;;;;;;0.20;0.20;;;;;;;20.16;53.26;98315.03;5092369;28;20434;-76
2021/07/05 02:02:40;;;;;;;0.10;0.10;;;;;;;20.10;53.32;98313.75;5063112;28;20448;-75
2021/07/05 02:05:09;;;;;;;0.03;0.03;;;;;;;20.05;53.38;98311.34;5087960;28;20036;-75
2021/07/05 02:07:35;;;;;;;0.10;0.10;;;;;;;20.00;53.70;98310.47;5092226;28;20028;-76
2021/07/05 02:10:00;;;;;;;0.10;0.10;;;;;;;19.97;53.97;98313.13;5090591;28;20228;-74
2021/07/05 02:12:26;;;;;;;0.10;0.10;;;;;;;19.94;54.28;98322.75;5092312;28;20020;-74
2021/07/05 02:14:51;;;;;;;0.10;0.10;;;;;;;19.90;54.27;98312.97;5067199;28;20031;-74
2021/07/05 02:17:17;;;;;;;0.10;0.10;;;;;;;19.87;54.25;98319.88;5084370;28;20031;-74
2021/07/05 02:19:42;;;;;;;0.10;0.10;;;;;;;19.83;54.22;98316.28;5092615;28;20033;-73
2021/07/05 02:22:08;;;;;;;0.10;0.10;;;;;;;19.80;54.01;98319.72;5094626;28;20047;-72
2021/07/05 02:24:35;;;;;;;0.10;0.10;;;;;;;19.80;53.97;98311.59;5092986;28;20457;-73
2021/07/05 02:27:00;;;;;;;0.10;0.10;;;;;;;19.78;53.90;98320.06;5079461;28;20032;-72
2021/07/05 02:29:26;;;;;;;0.10;0.10;;;;;;;19.74;53.81;98329.25;5093312;28;20024;-73
2021/07/05 02:31:52;;;;;;;0.17;0.17;;;;;;;19.73;54.16;98320.34;5086584;28;20112;-75
2021/07/05 02:34:17;;;;;;;0.10;0.10;;;;;;;19.70;54.24;98312.13;5079005;28;20106;-73
2021/07/05 02:36:43;;;;;;;0.10;0.10;;;;;;;19.67;54.09;98324.47;5085202;28;20116;-76
2021/07/05 02:39:09;;;;;;;0.10;0.10;;;;;;;19.65;53.95;98316.69;5073555;28;20029;-76
2021/07/05 02:41:35;;;;;;;0.20;0.20;;;;;;;19.65;54.05;98321.31;5061297;28;20082;-75
2021/07/05 02:44:00;;;;;;;0.10;0.10;;;;;;;19.61;54.06;98323.94;5073939;28;20045;-74
2021/07/05 02:46:26;;;;;;;0.05;0.05;;;;;;;19.59;53.46;98315.41;5083358;28;20032;-74
2021/07/05 02:48:51;;;;;;;0.10;0.10;;;;;;;19.58;53.67;98321.97;5083915;28;20076;-75
2021/07/05 02:51:17;;;;;;;0.00;0.00;;;;;;;19.55;54.07;98321.88;5060072;28;20036;-75
2021/07/05 02:53:43;;;;;;;0.10;0.10;;;;;;;19.52;54.24;98323.38;5083594;28;20032;-73
2021/07/05 02:56:09;;;;;;;0.10;0.10;;;;;;;19.51;54.48;98317.16;5082029;28;20040;-75
2021/07/05 02:58:35;;;;;;;0.10;0.10;;;;;;;19.54;54.50;98321.09;5073716;28;20031;-75
2021/07/05 03:01:07;;;;;;;0.00;0.00;;;;;;;19.61;54.34;98318.53;5078094;28;20024;-74
2021/07/05 03:03:33;;;;;;;0.10;0.10;;;;;;;19.71;54.14;98319.13;5093812;28;20106;-75
2021/07/05 03:05:59;;;;;;;0.10;0.10;;;;;;;19.87;53.95;98328.00;5077725;28;20021;-75
2021/07/05 03:08:24;;;;;;;0.10;0.10;;;;;;;20.07;53.67;98325.34;5087046;28;20035;-74
2021/07/05 03:10:50;;;;;;;0.10;0.10;;;;;;;20.30;53.33;98325.41;5079190;28;20036;-74
2021/07/05 03:13:18;;;;;;;0.10;0.10;;;;;;;20.59;52.50;98326.72;5074519;28;20035;-74
2021/07/05 03:15:44;;;;;;;0.10;0.10;;;;;;;20.87;51.85;98322.16;5083909;28;20502;-74
2021/07/05 03:18:11;;;;;;;0.00;0.00;;;;;;;21.24;51.16;98330.53;5077859;28;20443;-75
2021/07/05 03:20:39;;;;;;;0.10;0.10;;;;;;;21.63;49.54;98331.50;5092191;28;20047;-75
2021/07/05 03:23:05;;;;;;;;;;;;;;;22.03;48.44;98330.06;5085952;28;20104;-75
2021/07/05 03:25:34;;;;;;;0.10;0.10;;;;;;;22.46;47.20;98325.16;5082698;28;20387;-76
2021/07/05 03:28:00;;;;;;;0.10;0.10;;;;;;;22.93;46.59;98331.03;5076042;28;20028;-76
2021/07/05 03:30:27;;;;;;;0.10;0.10;;;;;;;23.39;46.02;98324.41;5074760;28;20119;-76
2021/07/05 03:32:53;;;;;;;0.10;0.10;;;;;;;23.85;45.25;98319.59;5082277;28;20103;-75
2021/07/05 03:35:19;;;;;;;0.00;0.00;;;;;;;24.34;44.14;98318.25;5071735;28;20130;-79
2021/07/05 03:37:45;;;;;;;0.10;0.10;;;;;;;24.83;43.18;98310.53;5060194;28;20028;-79
2021/07/05 03:40:14;;;;;;;0.00;0.00;;;;;;;25.35;42.07;98309.34;5090261;28;20093;-76
2021/07/05 03:42:39;;;;;;;0.00;0.00;;;;;;;25.86;40.43;98312.75;5087632;28;20107;-77
2021/07/05 03:45:07;;;;;;;0.00;0.00;;;;;;;26.37;39.08;98311.34;5077251;28;20135;-77
2021/07/05 03:47:33;;;;;;;0.10;0.10;;;;;;;26.83;38.12;98301.28;5083619;28;20035;-76
2021/07/05 03:49:58;;;;;;;0.00;0.00;;;;;;;27.28;36.88;98306.00;5088057;28;20411;-76
2021/07/05 03:52:24;;;;;;;0.10;0.10;;;;;;;27.66;36.12;98299.78;5072660;28;20031;-75
2021/07/05 03:54:49;;;;;;;0.00;0.00;;;;;;;28.07;35.10;98293.38;5078225;28;20028;-76
2021/07/05 03:57:25;;;;;;;0.00;0.00;;;;;;;28.49;34.19;98290.47;5085058;28;20070;-77
2021/07/05 03:59:55;;;;;;;0.00;0.00;;;;;;;28.86;33.87;98291.47;5069822;28;20032;-77
2021/07/05 04:02:22;;;;;;;0.00;0.00;;;;;;;29.18;33.41;98283.88;5062524;28;20020;-76
2021/07/05 04:04:48;;;;;;;0.00;0.00;;;;;;;29.29;32.58;98289.19;5077651;28;20024;-77
2021/07/05 04:07:14;;;;;;;0.00;0.00;;;;;;;29.15;32.75;98290.22;5085245;28;20024;-78
2021/07/05 04:09:41;;;;;;;0.00;0.00;;;;;;;29.11;33.14;98281.25;5074037;28;20032;-77
2021/07/05 04:12:11;;;;;;;0.00;0.00;;;;;;;29.33;33.20;98276.94;5070834;28;20055;-78
2021/07/05 04:14:37;;;;;;;0.10;0.10;;;;;;;29.71;32.79;98275.81;5082427;28;20051;-77
2021/07/05 04:17:03;;;;;;;0.00;0.00;;;;;;;30.09;32.28;98288.44;5075706;28;20024;-77
2021/07/05 04:19:29;;;;;;;0.00;0.00;;;;;;;30.53;31.64;98280.03;5090956;28;20077;-77
2021/07/05 04:21:54;;;;;;;0.00;0.00;;;;;;;30.98;31.07;98282.06;5068268;28;20038;-76
2021/07/05 04:24:20;;;;;;;0.00;0.00;;;;;;;31.41;30.35;98286.50;5088044;28;20020;-79
2021/07/05 04:26:45;;;;;;;0.00;0.00;;;;;;;31.83;29.83;98282.22;5061034;28;20088;-75
2021/07/05 04:29:11;;;;;;;0.00;0.00;;;;;;;32.24;29.32;98288.97;5071469;28;20565;-74
2021/07/05 04:31:37;;;;;;;0.00;0.00;;;;;;;32.61;28.41;98280.31;5070351;28;20032;-79
2021/07/05 04:34:02;;;;;;;0.00;0.00;;;;;;;32.93;28.14;98279.25;5071287;28;20016;-76
2021/07/05 04:36:28;;;;;;;0.00;0.00;;;;;;;33.27;28.31;98285.25;5071561;28;20032;-76
2021/07/05 04:38:53;;;;;;;0.00;0.00;;;;;;;33.55;27.58;98277.94;5053596;28;20031;-76
2021/07/05 04:41:19;;;;;;;0.00;0.00;;;;;;;33.82;26.84;98269.00;5071584;28;20028;-76
2021/07/05 04:43:44;;;;;;;0.00;0.00;;;;;;;34.08;26.96;98281.97;5071673;28;20491;-76
2021/07/05 04:46:10;;;;;;;0.00;0.00;;;;;;;34.28;26.37;98282.38;5053346;28;20029;-76
2021/07/05 04:48:35;;;;;;;0.00;0.00;;;;;;;34.44;25.80;98275.06;5071404;28;20017;-76
2021/07/05 04:51:03;;;;;;;0.00;0.00;;;;;;;34.56;25.45;98278.94;5071339;28;20545;-76
2021/07/05 04:53:29;;;;;;;0.00;0.00;;;;;;;34.70;25.50;98283.16;5071560;28;20047;-76
2021/07/05 04:55:54;;;;;;;0.00;0.00;;;;;;;34.81;25.62;98274.38;5071261;28;20479;-76
2021/07/05 04:58:21;;;;;;;0.00;0.00;;;;;;;34.95;24.87;98282.91;5071338;28;20032;-76
2021/07/05 05:00:47;;;;;;;0.00;0.00;;;;;;;35.06;24.87;98290.03;5071093;28;20035;-76
2021/07/05 05:03:12;;;;;;;0.00;0.00;;;;;;;35.10;24.86;98285.84;5070814;28;20107;-74
2021/07/05 05:05:41;;;;;;;0.00;0.00;;;;;;;35.13;24.65;98278.56;5071031;28;20510;-77
2021/07/05 05:08:08;;;;;;;0.00;0.00;;;;;;;35.24;24.32;98287.25;5071003;28;20032;-76
2021/07/05 05:10:35;;;;;;;0.00;0.00;;;;;;;35.30;24.67;98294.97;5071278;28;20396;-76
2021/07/05 05:13:00;;;;;;;0.00;0.00;;;;;;;35.38;24.86;98285.09;5070887;28;20468;-76
2021/07/05 05:15:26;;;;;;;0.00;0.00;;;;;;;35.21;24.97;98282.59;5071191;28;20075;-75
2021/07/05 05:17:52;;;;;;;0.00;0.00;;;;;;;35.23;24.55;98273.78;5069046;28;20021;-76
2021/07/05 05:20:18;;;;;;;0.00;0.00;;;;;;;35.30;24.60;98286.63;5071001;28;20024;-75
2021/07/05 05:22:45;;;;;;;0.00;0.00;;;;;;;35.35;24.64;98286.00;5070982;28;20029;-75
2021/07/05 05:25:11;;;;;;;0.10;0.10;;;;;;;35.38;24.41;98285.88;5070405;28;20064;-76
2021/07/05 05:27:37;;;;;;;0.00;0.00;;;;;;;35.49;24.39;98288.19;5070894;28;20025;-75
2021/07/05 05:30:08;;;;;;;0.00;0.00;;;;;;;35.65;23.92;98286.31;5070419;28;20024;-76
2021/07/05 05:32:34;;;;;;;0.00;0.00;;;;;;;35.82;24.22;98290.28;5070748;28;20032;-75
2021/07/05 05:34:59;;;;;;;0.10;0.10;;;;;;;35.84;24.04;98279.47;5070334;28;20040;-76
2021/07/05 05:37:25;;;;;;;0.57;0.45;;;;;;;35.86;23.68;98282.53;5070863;28;20027;-76
2021/07/05 05:39:50;;;;;;;0.00;0.00;;;;;;;35.96;24.39;98285.34;5070799;28;20035;-75
2021/07/05 05:42:16;;;;;;;0.10;0.10;;;;;;;36.09;23.88;98277.56;5070876;28;20024;-76
2021/07/05 05:44:44;;;;;;;0.00;0.00;;;;;;;36.05;24.46;98285.31;5070853;28;20382;-76
2021/07/05 05:47:11;;;;;;;0.10;0.10;;;;;;;35.83;24.21;98282.72;5070550;28;20028;-76
2021/07/05 05:49:36;;;;;;;0.10;0.10;;;;;;;35.54;24.55;98284.78;5070765;28;20029;-75
2021/07/05 05:52:02;;;;;;;1.17;1.08;;;;;;;35.28;24.83;98284.31;5070566;28;20035;-75
2021/07/05 05:54:27;;;;;;;0.10;0.10;;;;;;;35.02;24.36;98284.63;5070738;28;20112;-75
2021/07/05 05:56:53;;;;;;;0.20;0.20;;;;;;;34.90;24.72;98285.50;5070534;28;20051;-75
2021/07/05 05:59:19;;;;;;;0.20;0.20;;;;;;;34.76;25.07;98279.28;5070712;28;20024;-75
2021/07/05 06:01:54;;;;;;;0.20;0.20;;;;;;;34.45;24.78;98276.59;5070669;28;20028;-76
2021/07/05 06:04:23;;;;;;;0.00;0.00;;;;;;;34.42;24.98;98283.06;5070554;28;20048;-76
2021/07/05 06:06:49;;;;;;;0.20;0.20;;;;;;;34.43;25.35;98279.81;5070535;28;20499;-74
2021/07/05 06:09:14;;;;;;;0.10;0.10;;;;;;;34.36;25.97;98271.78;5070243;28;20032;-74
2021/07/05 06:11:40;;;;;;;0.17;0.17;;;;;;;34.50;26.09;98272.44;5052513;28;20041;-74
2021/07/05 06:14:07;;;;;;;0.00;0.00;;;;;;;34.66;26.07;98274.19;5070267;28;20033;-76
2021/07/05 06:16:34;;;;;;;0.08;0.08;;;;;;;34.95;25.30;98277.34;5070542;28;20032;-75
2021/07/05 06:19:00;;;;;;;0.10;0.10;;;;;;;35.29;24.20;98273.94;5070590;28;20035;-76
2021/07/05 06:21:26;;;;;;;0.10;0.10;;;;;;;35.47;23.75;98276.75;5070178;28;20033;-74
2021/07/05 06:23:56;;;;;;;0.05;0.05;;;;;;;35.74;23.38;98273.16;5070526;28;20078;-75
2021/07/05 06:26:22;;;;;;;0.10;0.10;;;;;;;35.65;23.23;98273.16;5051998;28;20123;-77
2021/07/05 06:28:47;;;;;;;0.10;0.10;;;;;;;35.78;22.71;98266.66;5073076;28;20112;-75
2021/07/05 06:31:13;;;;;;;0.20;0.10;;;;;;;35.79;23.60;98271.75;5073944;28;20025;-75
2021/07/05 06:33:39;;;;;;;0.00;0.00;;;;;;;35.85;23.54;98263.53;5074039;28;20524;-74
2021/07/05 06:36:05;;;;;;;0.00;0.00;;;;;;;35.79;22.94;98257.06;5073837;28;20487;-75
2021/07/05 06:38:31;;;;;;;3.60;0.20;;;;;;;35.56;23.61;98250.97;5073987;28;20502;-74
2021/07/05 06:40:57;;;;;;;;;;;;;;;35.48;24.08;98250.50;5074159;28;20445;-74
2021/07/05 06:43:24;;;;;;;0.20;0.20;;;;;;;35.44;24.26;98244.34;5073935;28;19908;-77
2021/07/05 06:45:50;;;;;;;0.10;0.10;;;;;;;35.31;23.45;98246.47;5073827;28;20502;-75
2021/07/05 06:48:15;;;;;;;0.38;0.38;;;;;;;35.22;23.96;98247.25;5073592;28;20411;-75
2021/07/05 06:50:40;;;;;;;0.00;0.00;;;;;;;35.05;24.51;98236.44;5073513;28;20036;-77
2021/07/05 06:53:07;;;;;;;0.10;0.10;;;;;;;35.02;24.53;98240.16;5073200;28;20024;-75
2021/07/05 06:55:33;;;;;;;0.00;0.00;;;;;;;34.96;24.57;98239.22;5073584;28;20038;-74
2021/07/05 06:57:58;;;;;;;0.10;0.10;;;;;;;34.85;25.13;98233.31;5073052;28;20032;-75
2021/07/05 07:00:26;;;;;;;0.00;0.00;;;;;;;34.85;24.84;98223.00;5073279;28;20056;-74
2021/07/05 07:02:52;;;;;;;0.22;0.22;;;;;;;34.75;24.41;98232.53;5073536;28;20027;-74
2021/07/05 07:05:20;;;;;;;0.00;0.00;;;;;;;34.61;24.32;98223.56;5055116;28;20040;-74
2021/07/05 07:07:48;;;;;;;0.00;0.00;;;;;;;34.49;24.75;98226.50;5073714;28;20036;-74
2021/07/05 07:10:16;;;;;;;0.10;0.10;;;;;;;34.25;24.86;98227.00;5073282;28;20032;-74
2021/07/05 07:12:46;;;;;;;0.00;0.00;;;;;;;34.05;24.26;98224.66;5073127;28;20032;-74
2021/07/05 07:15:12;;;;;;;0.00;0.00;;;;;;;33.85;25.18;98225.78;5073136;28;20066;-74
2021/07/05 07:17:39;;;;;;;0.00;0.00;;;;;;;33.72;25.19;98220.28;5073267;28;20020;-75
2021/07/05 07:20:07;;;;;;;0.08;0.08;;;;;;;33.61;25.31;98229.00;5073008;28;20082;-74
2021/07/05 07:22:37;;;;;;;0.00;0.00;;;;;;;33.52;25.61;98212.31;5055333;28;20471;-76
2021/07/05 07:25:08;;;;;;;0.10;0.10;;;;;;;33.33;25.52;98223.28;5072592;28;20053;-76
2021/07/05 07:27:34;;;;;;;2.63;0.63;;;;;;;33.30;26.19;98226.97;5072845;28;20025;-76
2021/07/05 07:29:59;;;;;;;0.03;0.03;;;;;;;33.12;26.57;98229.59;5072890;28;20422;-76
2021/07/05 07:32:25;;;;;;;0.17;0.17;;;;;;;32.97;27.40;98229.28;5072702;28;20032;-76
2021/07/05 07:34:51;;;;;;;0.00;0.00;;;;;;;32.73;26.97;98222.13;5072907;28;20036;-75
2021/07/05 07:37:16;;;;;;;0.00;0.00;;;;;;;32.63;26.62;98228.81;5072395;28;20031;-76
2021/07/05 07:39:45;;;;;;;0.03;0.03;;;;;;;32.48;27.82;98225.75;5072241;28;20032;-75
2021/07/05 07:42:10;;;;;;;0.35;0.28;;;;;;;32.29;27.71;98226.75;5072563;28;20016;-76
2021/07/05 07:44:36;;;;;;;0.15;0.15;;;;;;;32.21;28.02;98226.22;5072729;28;20035;-75
2021/07/05 07:47:03;;;;;;;0.00;0.00;;;;;;;32.14;27.69;98231.94;5072172;28;20100;-76
2021/07/05 07:49:30;;;;;;;0.10;0.10;;;;;;;32.03;27.88;98222.00;5072717;28;20020;-76
2021/07/05 07:51:59;;;;;;;0.15;0.15;;;;;;;31.84;28.42;98223.75;5072950;28;20043;-75
2021/07/05 07:54:24;;;;;;;0.00;0.00;;;;;;;31.78;27.91;98222.75;5072271;28;20035;-75
2021/07/05 07:56:51;;;;;;;0.00;0.00;;;;;;;31.73;27.93;98218.53;5072313;28;20024;-75
2021/07/05 07:59:16;;;;;;;0.10;0.10;;;;;;;31.65;28.07;98219.19;5072240;28;20028;-75
2021/07/05 08:01:42;;;;;;;0.00;0.00;;;;;;;31.58;27.53;98220.16;5072433;28;20078;-75
2021/07/05 08:04:08;;;;;;;0.57;0.38;;;;;;;31.50;27.57;98218.78;5072343;28;20025;-74
2021/07/05 08:06:34;;;;;;;0.00;0.00;;;;;;;31.50;27.48;98219.56;5072270;28;20024;-75
2021/07/05 08:09:00;;;;;;;0.00;0.00;;;;;;;31.56;28.16;98217.03;5054420;28;20541;-75
2021/07/05 08:11:26;;;;;;;0.00;0.00;;;;;;;31.61;28.09;98205.44;5072204;28;20028;-75
2021/07/05 08:13:51;;;;;;;0.08;0.08;;;;;;;31.55;27.33;98205.19;5072158;28;20496;-75
2021/07/05 08:16:17;;;;;;;0.30;0.30;;;;;;;31.57;27.05;98216.59;5071893;28;20036;-75
2021/07/05 08:18:42;;;;;;;0.10;0.10;;;;;;;31.59;27.68;98210.63;5072085;28;20070;-75
2021/07/05 08:21:08;;;;;;;0.10;0.10;;;;;;;31.54;27.62;98209.19;5071846;28;20036;-75
2021/07/05 08:23:33;;;;;;;0.10;0.10;;;;;;;31.52;27.47;98205.28;5072144;28;20028;-75
2021/07/05 08:25:59;;;;;;;0.10;0.10;;;;;;;31.53;27.51;98218.69;5071808;28;20522;-75
2021/07/05 08:28:25;;;;;;;0.20;0.20;;;;;;;31.54;27.64;98214.72;5071873;28;20516;-75
2021/07/05 08:30:55;;;;;;;0.60;0.47;;;;;;;31.52;27.35;98206.09;5071852;28;20032;-74
2021/07/05 08:33:20;;;;;;;0.00;0.00;;;;;;;31.55;27.27;98212.72;5071534;28;20025;-75
2021/07/05 08:35:46;;;;;;;0.25;0.17;;;;;;;31.55;26.67;98207.97;5070419;28;20398;-75
2021/07/05 08:38:12;;;;;;;0.10;0.10;;;;;;;31.53;26.76;98212.38;5071291;28;20039;-74
2021/07/05 08:40:37;;;;;;;0.00;0.00;;;;;;;31.51;27.54;98212.81;5071729;28;20021;-74
2021/07/05 08:43:03;;;;;;;0.10;0.10;;;;;;;31.44;27.44;98213.03;5071102;28;20103;-76
2021/07/05 08:45:28;;;;;;;0.00;0.00;;;;;;;31.37;27.16;98211.25;5071489;28;20039;-76
2021/07/05 08:47:55;;;;;;;0.00;0.00;;;;;;;31.32;26.92;98206.25;5071524;28;20135;-76
2021/07/05 08:50:23;;;;;;;0.30;0.30;;;;;;;31.14;26.55;98190.94;5071235;28;20032;-76
2021/07/05 08:52:49;;;;;;;0.05;0.05;;;;;;;31.06;26.22;98199.84;5070469;28;20024;-76
2021/07/05 08:55:17;;;;;;;0.60;0.60;;;;;;;30.94;27.17;98190.28;5070861;28;20502;-76
2021/07/05 08:57:44;;;;;;;0.15;0.15;;;;;;;30.88;26.64;98192.03;5071419;28;20099;-74
2021/07/05 09:00:15;;;;;;;0.08;0.08;;;;;;;30.85;26.31;98190.13;5053205;28;20493;-76
2021/07/05 09:02:40;;;;;;;0.10;0.10;;;;;;;30.82;26.17;98184.28;5071338;28;20545;-76
2021/07/05 09:05:07;;;;;;;0.00;0.00;;;;;;;30.79;25.63;98187.13;5071000;28;20029;-75
2021/07/05 09:07:32;;;;;;;0.45;0.45;;;;;;;30.74;25.63;98179.41;5071339;28;20029;-76
2021/07/05 09:10:03;;;;;;;3.42;0.57;;;;;;;30.71;26.30;98175.50;5071279;28;20109;-75
2021/07/05 09:12:29;;;;;;;0.05;0.05;;;;;;;30.74;25.67;98176.63;5071273;28;20021;-76
2021/07/05 09:15:14;;;;;;;0.13;0.13;;;;;;;30.70;26.18;98164.91;5071187;28;20024;-75
2021/07/05 09:17:42;;;;;;;0.68;0.68;;;;;;;30.62;25.89;98175.34;5071105;28;20028;-75
2021/07/05 09:20:14;;;;;;;0.38;0.38;;;;;;;30.61;25.13;98168.28;5070813;28;20074;-76
2021/07/05 09:23:13;;;;;;;0.15;0.15;;;;;;;30.68;25.59;98170.09;5071115;28;20044;-76
2021/07/05 09:25:47;;;;;;;0.52;0.32;;;;;;;30.73;25.51;98162.03;5067169;28;20080;-76
2021/07/05 09:28:15;;;;;;;0.20;0.17;;;;;;;30.80;25.30;98158.34;5070820;28;20108;-75
2021/07/05 09:30:43;;;;;;;0.65;0.65;;;;;;;30.81;26.43;98162.66;5071093;28;20500;-75
2021/07/05 09:33:21;;;;;;;0.17;0.17;;;;;;;30.90;26.53;98156.50;5070527;28;20025;-76
2021/07/05 09:35:59;;;;;;;0.00;0.00;;;;;;;30.93;25.79;98156.41;5070994;28;20083;-76
2021/07/05 09:38:33;;;;;;;0.05;0.05;;;;;;;30.99;26.88;98159.38;5070548;28;20032;-77
2021/07/05 09:41:14;;;;;;;0.00;0.00;;;;;;;31.06;26.30;98153.66;5070677;28;20469;-75
2021/07/05 09:43:41;;;;;;;0.20;0.20;;;;;;;31.14;26.87;98154.28;5070973;28;20029;-75
2021/07/05 09:46:11;;;;;;;0.10;0.10;;;;;;;31.14;27.26;98151.53;5052546;28;20515;-75
2021/07/05 09:48:44;;;;;;;0.15;0.15;;;;;;;31.07;26.05;98148.94;5070613;28;20588;-76
2021/07/05 09:51:10;;;;;;;0.30;0.30;;;;;;;31.00;27.21;98138.84;5070579;28;20024;-76
2021/07/05 09:53:40;;;;;;;0.30;0.30;;;;;;;31.00;26.49;98151.91;5070834;28;20024;-76
2021/07/05 09:56:19;;;;;;;0.22;0.20;;;;;;;30.87;27.08;98144.34;5070486;28;20029;-75
2021/07/05 09:58:45;;;;;;;0.08;0.08;;;;;;;30.85;26.88;98143.22;5070824;28;20029;-76
2021/07/05 10:01:10;;;;;;;0.47;0.47;;;;;;;30.85;26.87;98143.22;5070245;28;20587;-76
2021/07/05 10:03:39;;;;;;;0.00;0.00;;;;;;;30.81;25.86;98133.06;5073148;28;20096;-76
2021/07/05 10:06:19;;;;;;;0.00;0.00;;;;;;;30.86;25.88;98133.72;5074601;28;20485;-76
2021/07/05 10:08:47;;;;;;;0.10;0.10;;;;;;;30.84;26.67;98119.59;5074681;28;20024;-76
2021/07/05 10:11:13;;;;;;;0.00;0.00;;;;;;;30.89;27.28;98132.84;5074311;28;20035;-76
2021/07/05 10:13:39;;;;;;;0.93;0.73;;;;;;;30.96;26.31;98129.91;5074313;28;20480;-76
2021/07/05 10:16:09;;;;;;;0.47;0.28;;;;;;;30.96;25.96;98124.38;5074579;28;20036;-76
2021/07/05 10:18:35;;;;;;;0.00;0.00;;;;;;;30.98;26.44;98119.19;5074146;28;20400;-75
2021/07/05 10:21:02;;;;;;;0.38;0.38;;;;;;;31.05;26.89;98121.75;5074452;28;20035;-76
2021/07/05 10:23:28;;;;;;;0.15;0.15;;;;;;;31.13;26.53;98114.84;5074128;28;20107;-76
2021/07/05 10:25:53;;;;;;;0.10;0.10;;;;;;;31.13;26.23;98109.31;5074117;28;20123;-75
2021/07/05 10:28:19;;;;;;;0.22;0.22;;;;;;;31.17;23.97;98105.69;5073990;28;20107;-76
2021/07/05 10:30:49;;;;;;;0.43;0.20;;;;;;;31.11;25.11;98108.22;5073879;28;20167;-76
2021/07/05 10:33:14;;;;;;;0.28;0.28;;;;;;;31.14;25.58;98104.59;5074045;28;20021;-76
2021/07/05 10:35:44;;;;;;;0.13;0.13;;;;;;;31.14;25.44;98099.06;5074289;28;20036;-76
2021/07/05 10:38:29;;;;;;;0.00;0.00;;;;;;;31.21;25.91;98101.59;5073900;28;20024;-76
2021/07/05 10:41:01;;;;;;;0.15;0.15;;;;;;;31.28;26.05;98097.88;5074018;28;20499;-76
2021/07/05 10:43:48;;;;;;;0.20;0.20;;;;;;;31.36;25.73;98104.72;5073798;28;20024;-76
2021/07/05 10:46:39;;;;;;;0.00;0.00;;;;;;;31.46;25.12;98097.34;5073577;28;20048;-75
2021/07/05 10:49:32;;;;;;;0.00;0.00;;;;;;;31.53;24.42;98102.66;5074030;28;20024;-75
2021/07/05 10:52:08;;;;;;;0.05;0.05;;;;;;;31.61;24.65;98097.66;5073933;28;20040;-75
2021/07/05 10:54:55;;;;;;;0.00;0.00;;;;;;;31.69;24.22;98087.19;5073551;28;20107;-75
2021/07/05 10:57:33;;;;;;;0.30;0.30;;;;;;;31.75;24.73;98091.72;5073567;28;20028;-75
2021/07/05 11:00:08;;;;;;;0.00;0.00;;;;;;;31.70;24.12;98085.97;5074021;28;20035;-75
2021/07/05 11:02:37;;;;;;;0.47;0.47;;;;;;;31.59;25.16;98081.53;5073494;28;20025;-75
2021/07/05 11:05:25;;;;;;;0.22;0.15;;;;;;;31.65;24.85;98081.75;5073510;28;20060;-75
2021/07/05 11:07:52;;;;;;;0.03;0.03;;;;;;;31.67;24.04;98076.56;5073121;28;20029;-75
2021/07/05 11:10:26;;;;;;;0.10;0.10;;;;;;;31.75;24.26;98064.09;5072998;28;20028;-75
2021/07/05 11:13:03;;;;;;;0.10;0.10;;;;;;;31.76;24.08;98079.44;5073427;28;20037;-75
2021/07/05 11:15:50;;;;;;;0.52;0.32;;;;;;;31.63;24.00;98073.13;5071831;28;20103;-75
2021/07/05 11:18:36;;;;;;;0.10;0.10;;;;;;;31.56;23.96;98070.59;5073114;28;20017;-75
2021/07/05 11:21:04;;;;;;;0.03;0.03;;;;;;;31.56;25.11;98062.31;5065538;28;20267;-76
2021/07/05 11:24:02;;;;;;;2.92;0.15;;;;;;;31.66;24.83;98066.72;5073017;28;20039;-75
2021/07/05 11:26:35;;;;;;;0.00;0.00;;;;;;;31.72;24.31;98067.72;5072822;28;20055;-75
2021/07/05 11:29:15;;;;;;;0.10;0.10;;;;;;;31.83;23.86;98061.09;5073065;28;20028;-75
2021/07/05 11:31:48;;;;;;;1.25;0.70;;;;;;;31.83;23.88;98056.31;5073073;28;20028;-75
2021/07/05 11:34:38;;;;;;;0.22;0.22;;;;;;;31.89;24.37;98057.31;5072518;28;20107;-75
2021/07/05 11:37:12;;;;;;;0.05;0.05;;;;;;;31.95;23.78;98059.53;5072729;28;20135;-76